ADDS METAR Data INFO
IDs: Format: Raw Decoded Include TAF

Data at: 1533 UTC 25 Feb 2018

KEMK 251515Z AUTO 15021KT 4SM HZ BKN018 BKN024 24/21 A3002 RMK A01
KEMK 251455Z AUTO 15021KT 4SM HZ BKN019 BKN090 24/21 A3001 RMK A01
KEMK 251435Z AUTO 14023KT 4SM HZ SCT017 SCT090 24/21 A3000 RMK A01
KEMK 251415Z AUTO 15022KT 4SM HZ FEW021 24/21 A3000 RMK A01
KEMK 251355Z AUTO 15023KT 4SM HZ SCT020 23/21 A2999 RMK A01
KEMK 251335Z AUTO 15022KT 3SM BR FEW018 23/21 A2999 RMK A01
KEMK 251315Z AUTO 14019KT 4SM HZ SCT017 SCT085 23/21 A2998 RMK A01
KEMK 251255Z AUTO 14019KT 3SM BR BKN017 OVC085 23/21 A2998 RMK A01
KEMK 251235Z AUTO 15017KT 5SM BR OVC015 23/21 A2999 RMK A01
KEMK 251215Z AUTO 15017KT 5SM HZ SCT014 SCT018 23/21 A2998 RMK A01
KEMK 251155Z AUTO 15018KT 5SM HZ SCT016 23/21 A2997 RMK A01
KEMK 251135Z AUTO 15019KT 5SM HZ BKN016 23/21 A2998 RMK A01
KEMK 251115Z AUTO 15019KT 5SM HZ BKN016 23/21 A2997 RMK A01
KEMK 251055Z AUTO 15019KT 5SM HZ BKN016 BKN021 23/21 A2996 RMK A01
KEMK 251035Z AUTO 16017KT 5SM HZ BKN016 BKN021 23/21 A2997 RMK A01
KEMK 251015Z AUTO 15018KT 5SM HZ SCT015 23/21 A2996 RMK A01
KEMK 250955Z AUTO 15020KT 5SM HZ OVC016 23/21 A2995 RMK A01
KEMK 250935Z AUTO 15020KT 5SM HZ OVC016 23/21 A2994 RMK A01
KEMK 250915Z AUTO 15022KT 5SM HZ OVC016 23/21 A2994 RMK A01
KEMK 250855Z AUTO 15021KT 5SM HZ OVC017 23/21 A2995 RMK A01
KEMK 250835Z AUTO 15020KT 4SM HZ BKN016 23/21 A2995 RMK A01
KEMK 250815Z AUTO 15022KT 5SM HZ BKN015 23/21 A2996 RMK A01
KEMK 250755Z AUTO 15023KT 4SM HZ BKN015 23/21 A2997 RMK A01
KEMK 250735Z AUTO 15020KT 5SM HZ OVC017 23/21 A2998 RMK A01
KEMK 250715Z AUTO 16021KT 4SM HZ OVC016 23/21 A2998 RMK A01
KEMK 250655Z AUTO 15021KT 4SM HZ OVC016 23/21 A2998 RMK A01
KEMK 250635Z AUTO 15022KT 5SM HZ OVC017 23/21 A2998 RMK A01
KEMK 250615Z AUTO 15020KT 4SM HZ OVC016 24/21 A2999 RMK A01
KEMK 250555Z AUTO 15020KT 4SM BR OVC016 23/21 A2999 RMK A01
KEMK 250535Z AUTO 16021KT 4SM BR BKN016 23/21 A2999 RMK A01
KEMK 250515Z AUTO 15021KT 4SM BR SCT014 23/21 A2999 RMK A01
KEMK 250455Z AUTO 15021KT 4SM BR CLR 23/21 A2999 RMK A01
KEMK 250435Z AUTO 15020KT 4SM BR CLR 23/22 A2999 RMK A01
KEMK 250415Z AUTO 15022KT 4SM BR CLR 23/22 A2998 RMK A01
KEMK 250355Z AUTO 14021KT 4SM BR CLR 23/22 A2998 RMK A01
KEMK 250335Z AUTO 15022KT 4SM BR CLR 24/22 A2998 RMK A01
KEMK 250315Z AUTO 14022KT 3SM BR CLR 24/22 A2997 RMK A01
KEMK 250255Z AUTO 15021KT 3SM BR CLR 24/22 A2997 RMK A01
KEMK 250235Z AUTO 15024KT 3SM BR CLR 24/22 A2997 RMK A01
KEMK 250215Z AUTO 15022KT 3SM BR SCT013 24/22 A2996 RMK A01
KEMK 250155Z AUTO 15021KT 3SM BR BKN012 24/22 A2996 RMK A01
KEMK 250135Z AUTO 15021KT 3SM BR BKN011 24/22 A2996 RMK A01
KEMK 250115Z AUTO 15020KT 3SM BR CLR 24/22 A2995 RMK A01
KEMK 250055Z AUTO 15021KT 3SM BR CLR 24/22 A2994 RMK A01
KEMK 250035Z AUTO 15023KT 2 1/2SM BR FEW003 24/22 A2994 RMK A01
KEMK 250015Z AUTO 15025KT 2 1/2SM BR FEW023 FEW027 24/22 A2993 RMK A01
KEMK 242355Z AUTO 16023KT 2 1/2SM BR SCT025 24/22 A2994 RMK A01
KEMK 242335Z AUTO 16022KT 2 1/2SM BR SCT024 24/22 A2993 RMK A01
KEMK 242315Z AUTO 16021KT 2 1/2SM BR SCT016 BKN022 BKN028 24/22 A2993 RMK A01
KEMK 242255Z AUTO 15023KT 2 1/2SM BR BKN016 BKN022 24/22 A2992 RMK A01
KEMK 242235Z AUTO 15022G28KT 2 1/2SM BR BKN017 BKN024 24/22 A2992 RMK A01
KEMK 242215Z AUTO 16022KT 2 1/2SM BR BKN014 BKN019 OVC024 24/22 A2991 RMK A01
KEMK 242155Z AUTO 15022KT 2 1/2SM BR BKN014 BKN019 24/22 A2991 RMK A01
KEMK 242135Z AUTO 15023KT 2SM BR BKN014 BKN019 24/22 A2991 RMK A01
KEMK 242115Z AUTO 15022G27KT 2 1/2SM BR BKN014 24/22 A2991 RMK A01
KEMK 242055Z AUTO 15022KT 2 1/2SM HZ SCT014 24/22 A2991 RMK A01
KEMK 242035Z AUTO 15025KT 2 1/2SM HZ SCT015 SCT022 24/22 A2992 RMK A01
KEMK 242015Z AUTO 15025KT 2 1/2SM HZ SCT015 SCT022 24/22 A2993 RMK A01
KEMK 241955Z AUTO 15023KT 2 1/2SM HZ SCT015 25/22 A2993 RMK A01
KEMK 241935Z AUTO 15023KT 3SM HZ BKN017 25/22 A2995 RMK A01
KEMK 241915Z AUTO 15023KT 3SM HZ BKN014 BKN020 25/22 A2997 RMK A01
KEMK 241855Z AUTO 15024KT 3SM HZ BKN014 25/22 A2997 RMK A01
KEMK 241835Z AUTO 15024KT 3SM HZ OVC015 24/22 A2999 RMK A01
KEMK 241815Z AUTO 15023KT 3SM HZ BKN015 OVC028 24/22 A3000 RMK A01
KEMK 241755Z AUTO 15025KT 3SM HZ BKN016 BKN029 24/22 A3000 RMK A01
KEMK 241735Z AUTO 15023G29KT 3SM HZ SCT016 SCT021 BKN033 24/22 A3001 RMK A01
KEMK 241715Z AUTO 15026KT 3SM HZ SCT016 SCT021 BKN031 24/22 A3001 RMK A01
KEMK 241655Z AUTO 15024KT 3SM HZ FEW016 BKN026 BKN031 24/21 A3002 RMK A01
KEMK 241635Z AUTO 15026KT 3SM HZ FEW018 BKN026 24/21 A3002 RMK A01
KEMK 241615Z AUTO 15024KT 3SM HZ SCT018 BKN025 BKN029 24/21 A3003 RMK A01
KEMK 241555Z AUTO 15026KT 3SM HZ FEW017 BKN024 24/21 A3002 RMK A01
KEMK 241535Z AUTO 15025KT 4SM HZ FEW018 SCT022 24/21 A3003 RMK A01
KEMK 241515Z AUTO 14024KT 4SM HZ CLR 24/21 A3003 RMK A01
KEMK 241455Z AUTO 14023KT 4SM HZ FEW016 FEW022 SCT028 24/21 A3002 RMK A01
KEMK 241435Z AUTO 14026KT 4SM HZ FEW016 SCT024 SCT029 24/21 A3003 RMK A01
KEMK 240835Z AUTO 14026G31KT 5SM BR SCT013 SCT018 23/21 A3002 RMK A01
KEMK 240815Z AUTO 15024KT 5SM BR BKN014 23/21 A3003 RMK A01
KEMK 240755Z AUTO 15026KT 4SM BR BKN014 23/22 A3004 RMK A01
KEMK 240735Z AUTO 14025G32KT 5SM BR BKN014 23/22 A3003 RMK A01
KEMK 240715Z AUTO 14025KT 4SM BR BKN012 23/22 A3005 RMK A01
KEMK 240655Z AUTO 14023KT 4SM BR OVC012 23/22 A3005 RMK A01
KEMK 240635Z AUTO 14023KT 4SM BR FEW003 SCT011 BKN015 23/22 A3005 RMK A01
KEMK 240615Z AUTO 14023KT 4SM BR SCT011 SCT016 OVC022 23/22 A3005 RMK A01
KEMK 240555Z AUTO 14024KT 4SM BR SCT011 SCT016 BKN021 23/22 A3006 RMK A01
KEMK 240535Z AUTO 14022KT 4SM BR FEW009 SCT013 BKN021 23/22 A3007 RMK A01
KEMK 240515Z AUTO 14023KT 4SM BR FEW008 BKN015 OVC022 23/22 A3008 RMK A01
KEMK 240455Z AUTO 14020KT 4SM BR FEW009 SCT012 BKN022 24/22 A3008 RMK A01
KEMK 240435Z AUTO 14022KT 4SM BR SCT010 SCT021 OVC027 24/22 A3009 RMK A01
KEMK 240415Z AUTO 14022KT 4SM BR FEW013 BKN027 24/22 A3010 RMK A01
KEMK 240355Z AUTO 14024KT 4SM BR FEW013 BKN030 23/22 A3009 RMK A01
KEMK 240335Z AUTO 14023KT 4SM BR OVC030 24/22 A3009 RMK A01